Friday, October 24, 2014
08:37 UTC
  |  Log In   |  Register Free
Airport Search:

Firelands Community Hospital Nr 2 Airport
(OI87)

Firelands Community Hospital Nr 2 Airport Diagram
No Airport Diagram Available

FAA data valid effective September 18, 2014 - November 13, 2014 (unless otherwise noted).

 
 
 
 
 
 
 
 
 
 
 
 
 
 

Current Aviation Weather for Firelands Community Hospital Nr 2 Airport (OI87)

METAR data is unavailable for OI87. The nearest METAR location is at KPCW (8.3 nm NW from OI87).

The most recent METAR observation for KPCW was updated at: 0811
METAR Summary (Translated METAR)
KPCW
240753Z AUTO 00000KT 10SM CLR 07/05 A3008 RMK AO2 T00660050 $
(8.3 nm NW from OI87)
KLPR
240753Z AUTO 00000KT 9SM CLR 02/02 A3010 RMK AO2 SLP196 T00220022 TSNO $
(24.8 nm SE from OI87)
TAF
No TAF information found within 50 nm of KLPR
  Airport Weather Conditions for OI87

Current weather conditions are
not available for OI87


The nearest NOAA weather station
is at PCW, (8.3 nm NW from OI87)
  
 Current Weather at PCW
44° F
Fair
North winds at 0.0 mph
PCW NOAA Radar

Pressure: 30.08 in
Humidity: 90%
Wind: Calm
Dew Point: 41.0°F
Visibility: 10.00 mi


Airport Weather Forecast for OI87

Translated METAR and TAF for KLPR
Translated METAR for KLPR (0832 UTC 24 October 2014)
found at http://aviationweather.gov/adds/metars/
 
METAR text: KLPR 240753Z AUTO 00000KT 9SM CLR 02/02 A3010 RMK AO2 SLP196 T00220022 TSNO $
Conditions at: KLPR (LORAIN/ELYRIA , OH, US) observed 0753 UTC 24 October 2014
Temperature: 2.2°C (36°F)
Dewpoint: 2.2°C (36°F) [RH = 100%]
Pressure (altimeter): 30.10 inches Hg (1019.4 mb)
[Sea-level pressure: 1019.6 mb]
Winds: calm
Visibility: 9 miles (14 km)
Ceiling: at least 12,000 feet AGL
Clouds: sky clear below 12,000 feet AGL
Weather:
SOME DATA ABOVE MAY BE INACCURATE!!!
"$" is an indication the sensor requires maintenance
Translated TAF for KLPR

There is no translated TAF available for this airport

Find All Airport Services Find A Hotel Find A Rental Car Find A Golf Course Find A Restaurant $100 Hamburger



FBO's on the Field
FBO Company Facility Photos Services Transportation Aviation Fuel Prices: Prices include tax
Catering Weather Repair Courtesy Rental Type 100LL JetA JetA+ MOGAS 8087
 
Add another FBO Facility Photos Catering Weather Repair Courtesy Rental Type 100LL JetA JetA+ MOGAS 8087
Services Transportation Aviation Fuel Prices: Prices include tax
There are no FBO's currently reporting fuel at OI87. List your FBO now


model-print
model-print
model-print
model-print